sensor_id;sensor_type;location;lat;lon;timestamp;P1;durP1;ratioP1;P2;durP2;ratioP2
142;SDS011;63667;49.046;8.468;2023-02-01T00:00:42;17.30;;;9.00;;
142;SDS011;63667;49.046;8.468;2023-02-01T00:03:10;19.37;;;8.50;;
142;SDS011;63667;49.046;8.468;2023-02-01T00:05:38;20.90;;;9.57;;
142;SDS011;63667;49.046;8.468;2023-02-01T00:08:08;22.17;;;9.27;;
142;SDS011;63667;49.046;8.468;2023-02-01T00:10:35;17.57;;;8.83;;
142;SDS011;63667;49.046;8.468;2023-02-01T00:13:03;19.87;;;9.00;;
142;SDS011;63667;49.046;8.468;2023-02-01T00:15:29;20.77;;;9.30;;
142;SDS011;63667;49.046;8.468;2023-02-01T00:17:57;21.33;;;8.70;;
142;SDS011;63667;49.046;8.468;2023-02-01T00:20:25;16.70;;;8.20;;
142;SDS011;63667;49.046;8.468;2023-02-01T00:22:52;17.03;;;9.07;;
142;SDS011;63667;49.046;8.468;2023-02-01T00:25:20;19.63;;;8.60;;
142;SDS011;63667;49.046;8.468;2023-02-01T00:27:49;19.10;;;9.33;;
142;SDS011;63667;49.046;8.468;2023-02-01T00:30:17;16.23;;;8.27;;
142;SDS011;63667;49.046;8.468;2023-02-01T00:32:51;18.10;;;9.30;;
142;SDS011;63667;49.046;8.468;2023-02-01T00:35:19;18.43;;;9.00;;
142;SDS011;63667;49.046;8.468;2023-02-01T00:38:02;19.07;;;8.40;;
142;SDS011;63667;49.046;8.468;2023-02-01T00:40:31;20.50;;;9.33;;
142;SDS011;63667;49.046;8.468;2023-02-01T00:42:58;16.13;;;8.70;;
142;SDS011;63667;49.046;8.468;2023-02-01T00:45:26;14.43;;;7.87;;
142;SDS011;63667;49.046;8.468;2023-02-01T00:47:54;18.43;;;8.33;;
142;SDS011;63667;49.046;8.468;2023-02-01T00:50:21;16.47;;;7.60;;
142;SDS011;63667;49.046;8.468;2023-02-01T00:52:50;13.97;;;8.43;;
142;SDS011;63667;49.046;8.468;2023-02-01T00:55:18;15.30;;;7.80;;
142;SDS011;63667;49.046;8.468;2023-02-01T00:57:45;15.80;;;9.07;;
142;SDS011;63667;49.046;8.468;2023-02-01T01:00:13;12.17;;;6.90;;
142;SDS011;63667;49.046;8.468;2023-02-01T01:02:42;18.07;;;7.70;;
142;SDS011;63667;49.046;8.468;2023-02-01T01:05:09;15.13;;;7.37;;
142;SDS011;63667;49.046;8.468;2023-02-01T01:07:36;15.33;;;7.87;;
142;SDS011;63667;49.046;8.468;2023-02-01T01:10:04;13.30;;;7.17;;
142;SDS011;63667;49.046;8.468;2023-02-01T01:12:34;13.70;;;6.33;;
142;SDS011;63667;49.046;8.468;2023-02-01T01:15:02;11.83;;;6.90;;
142;SDS011;63667;49.046;8.468;2023-02-01T01:17:31;14.57;;;7.00;;
142;SDS011;63667;49.046;8.468;2023-02-01T01:19:58;19.90;;;8.07;;
142;SDS011;63667;49.046;8.468;2023-02-01T01:22:30;13.50;;;7.30;;
142;SDS011;63667;49.046;8.468;2023-02-01T01:24:57;11.60;;;6.30;;
142;SDS011;63667;49.046;8.468;2023-02-01T01:27:25;10.60;;;6.10;;
142;SDS011;63667;49.046;8.468;2023-02-01T01:29:56;16.40;;;6.47;;
142;SDS011;63667;49.046;8.468;2023-02-01T01:32:31;14.87;;;6.90;;
142;SDS011;63667;49.046;8.468;2023-02-01T01:35:00;15.23;;;7.00;;
142;SDS011;63667;49.046;8.468;2023-02-01T01:37:31;11.67;;;6.30;;
142;SDS011;63667;49.046;8.468;2023-02-01T01:39:59;11.30;;;6.63;;
142;SDS011;63667;49.046;8.468;2023-02-01T01:42:26;10.70;;;6.37;;
142;SDS011;63667;49.046;8.468;2023-02-01T01:44:55;11.70;;;6.80;;
142;SDS011;63667;49.046;8.468;2023-02-01T01:47:34;11.93;;;6.23;;
142;SDS011;63667;49.046;8.468;2023-02-01T01:50:08;11.97;;;6.30;;
142;SDS011;63667;49.046;8.468;2023-02-01T01:52:37;14.93;;;6.83;;
142;SDS011;63667;49.046;8.468;2023-02-01T01:55:06;15.77;;;6.43;;
142;SDS011;63667;49.046;8.468;2023-02-01T01:57:38;13.70;;;6.90;;
142;SDS011;63667;49.046;8.468;2023-02-01T02:00:09;18.93;;;5.87;;
142;SDS011;63667;49.046;8.468;2023-02-01T02:02:42;18.10;;;6.97;;
142;SDS011;63667;49.046;8.468;2023-02-01T02:05:11;11.27;;;6.60;;
142;SDS011;63667;49.046;8.468;2023-02-01T02:07:41;10.30;;;5.80;;
142;SDS011;63667;49.046;8.468;2023-02-01T02:10:12;11.50;;;6.37;;
142;SDS011;63667;49.046;8.468;2023-02-01T02:12:41;8.00;;;5.20;;
142;SDS011;63667;49.046;8.468;2023-02-01T02:15:11;13.80;;;6.30;;
142;SDS011;63667;49.046;8.468;2023-02-01T02:25:41;9.77;;;5.87;;
142;SDS011;63667;49.046;8.468;2023-02-01T02:39:53;9.93;;;5.80;;
142;SDS011;63667;49.046;8.468;2023-02-01T02:42:37;10.53;;;6.47;;
142;SDS011;63667;49.046;8.468;2023-02-01T02:49:26;9.47;;;5.57;;
142;SDS011;63667;49.046;8.468;2023-02-01T02:52:39;10.73;;;5.43;;
142;SDS011;63667;49.046;8.468;2023-02-01T02:55:13;9.63;;;5.73;;
142;SDS011;63667;49.046;8.468;2023-02-01T02:57:41;9.57;;;5.90;;
142;SDS011;63667;49.046;8.468;2023-02-01T03:00:29;13.27;;;6.13;;
142;SDS011;63667;49.046;8.468;2023-02-01T03:03:17;8.50;;;5.57;;
142;SDS011;63667;49.046;8.468;2023-02-01T03:06:02;16.00;;;6.17;;
142;SDS011;63667;49.046;8.468;2023-02-01T03:08:31;10.73;;;6.40;;
142;SDS011;63667;49.046;8.468;2023-02-01T03:11:02;11.47;;;5.90;;
142;SDS011;63667;49.046;8.468;2023-02-01T03:16:12;8.97;;;5.33;;
142;SDS011;63667;49.046;8.468;2023-02-01T03:18:54;12.83;;;6.10;;
142;SDS011;63667;49.046;8.468;2023-02-01T03:21:36;9.43;;;5.93;;
142;SDS011;63667;49.046;8.468;2023-02-01T03:26:48;9.27;;;5.73;;
142;SDS011;63667;49.046;8.468;2023-02-01T03:29:23;9.30;;;5.43;;
142;SDS011;63667;49.046;8.468;2023-02-01T03:31:55;11.40;;;6.10;;
142;SDS011;63667;49.046;8.468;2023-02-01T03:34:23;9.90;;;5.70;;
142;SDS011;63667;49.046;8.468;2023-02-01T03:36:57;13.80;;;6.30;;
142;SDS011;63667;49.046;8.468;2023-02-01T03:39:30;9.47;;;6.23;;
142;SDS011;63667;49.046;8.468;2023-02-01T03:42:21;11.10;;;6.37;;
142;SDS011;63667;49.046;8.468;2023-02-01T03:47:44;11.60;;;6.43;;
142;SDS011;63667;49.046;8.468;2023-02-01T03:50:18;10.70;;;5.73;;
142;SDS011;63667;49.046;8.468;2023-02-01T03:52:55;13.57;;;6.50;;
142;SDS011;63667;49.046;8.468;2023-02-01T03:55:29;12.63;;;6.13;;
142;SDS011;63667;49.046;8.468;2023-02-01T03:58:08;8.83;;;5.43;;
142;SDS011;63667;49.046;8.468;2023-02-01T04:00:38;8.67;;;5.30;;
142;SDS011;63667;49.046;8.468;2023-02-01T04:03:05;11.13;;;5.83;;
142;SDS011;63667;49.046;8.468;2023-02-01T04:05:34;9.30;;;5.60;;
142;SDS011;63667;49.046;8.468;2023-02-01T04:08:02;10.17;;;5.30;;
142;SDS011;63667;49.046;8.468;2023-02-01T04:10:31;12.80;;;5.60;;
142;SDS011;63667;49.046;8.468;2023-02-01T04:12:58;6.70;;;4.90;;
142;SDS011;63667;49.046;8.468;2023-02-01T04:15:27;12.03;;;5.90;;
142;SDS011;63667;49.046;8.468;2023-02-01T04:17:54;7.80;;;5.00;;
142;SDS011;63667;49.046;8.468;2023-02-01T04:20:22;9.30;;;5.50;;
142;SDS011;63667;49.046;8.468;2023-02-01T04:22:49;9.60;;;5.63;;
142;SDS011;63667;49.046;8.468;2023-02-01T04:25:17;13.90;;;6.27;;
142;SDS011;63667;49.046;8.468;2023-02-01T04:27:44;10.20;;;5.70;;
142;SDS011;63667;49.046;8.468;2023-02-01T04:30:12;10.30;;;5.80;;
142;SDS011;63667;49.046;8.468;2023-02-01T04:32:40;10.97;;;6.30;;
142;SDS011;63667;49.046;8.468;2023-02-01T04:35:09;8.77;;;5.63;;
142;SDS011;63667;49.046;8.468;2023-02-01T04:37:37;12.87;;;6.40;;
142;SDS011;63667;49.046;8.468;2023-02-01T04:40:05;11.23;;;5.90;;
142;SDS011;63667;49.046;8.468;2023-02-01T04:42:35;15.90;;;6.73;;
142;SDS011;63667;49.046;8.468;2023-02-01T04:45:03;11.80;;;6.40;;
142;SDS011;63667;49.046;8.468;2023-02-01T04:47:32;10.47;;;6.03;;
142;SDS011;63667;49.046;8.468;2023-02-01T04:50:00;12.93;;;6.80;;
142;SDS011;63667;49.046;8.468;2023-02-01T04:52:28;13.40;;;7.10;;
142;SDS011;63667;49.046;8.468;2023-02-01T04:54:55;13.53;;;7.17;;
142;SDS011;63667;49.046;8.468;2023-02-01T04:57:25;15.17;;;8.00;;
142;SDS011;63667;49.046;8.468;2023-02-01T04:59:52;13.67;;;6.60;;
142;SDS011;63667;49.046;8.468;2023-02-01T05:02:20;12.90;;;7.17;;
142;SDS011;63667;49.046;8.468;2023-02-01T05:04:47;15.97;;;8.43;;
142;SDS011;63667;49.046;8.468;2023-02-01T05:07:16;13.63;;;7.00;;
142;SDS011;63667;49.046;8.468;2023-02-01T05:09:43;11.93;;;6.50;;
142;SDS011;63667;49.046;8.468;2023-02-01T05:12:11;12.50;;;7.13;;
142;SDS011;63667;49.046;8.468;2023-02-01T05:14:56;11.47;;;6.30;;
142;SDS011;63667;49.046;8.468;2023-02-01T05:17:24;15.40;;;6.23;;
142;SDS011;63667;49.046;8.468;2023-02-01T05:19:51;12.63;;;6.70;;
142;SDS011;63667;49.046;8.468;2023-02-01T05:22:20;11.50;;;6.00;;
142;SDS011;63667;49.046;8.468;2023-02-01T05:24:46;15.50;;;7.00;;
142;SDS011;63667;49.046;8.468;2023-02-01T05:27:14;13.53;;;6.57;;
142;SDS011;63667;49.046;8.468;2023-02-01T05:29:41;16.40;;;7.27;;
142;SDS011;63667;49.046;8.468;2023-02-01T05:32:09;8.80;;;5.30;;
142;SDS011;63667;49.046;8.468;2023-02-01T05:34:37;12.27;;;6.50;;
142;SDS011;63667;49.046;8.468;2023-02-01T05:37:03;13.00;;;6.40;;
142;SDS011;63667;49.046;8.468;2023-02-01T05:39:31;9.63;;;6.50;;
142;SDS011;63667;49.046;8.468;2023-02-01T05:41:59;15.47;;;7.03;;
142;SDS011;63667;49.046;8.468;2023-02-01T05:44:26;10.93;;;6.93;;
142;SDS011;63667;49.046;8.468;2023-02-01T05:46:54;12.47;;;6.83;;
142;SDS011;63667;49.046;8.468;2023-02-01T05:49:21;11.97;;;6.53;;
142;SDS011;63667;49.046;8.468;2023-02-01T05:51:49;13.47;;;6.87;;
142;SDS011;63667;49.046;8.468;2023-02-01T05:54:16;14.47;;;6.20;;
142;SDS011;63667;49.046;8.468;2023-02-01T05:56:44;14.43;;;6.93;;
142;SDS011;63667;49.046;8.468;2023-02-01T05:59:11;12.73;;;6.73;;
142;SDS011;63667;49.046;8.468;2023-02-01T06:01:38;12.17;;;6.70;;
142;SDS011;63667;49.046;8.468;2023-02-01T06:04:05;22.57;;;8.10;;
142;SDS011;63667;49.046;8.468;2023-02-01T06:06:32;13.97;;;7.60;;
142;SDS011;63667;49.046;8.468;2023-02-01T06:08:59;11.30;;;6.87;;
142;SDS011;63667;49.046;8.468;2023-02-01T06:11:26;16.63;;;7.83;;
142;SDS011;63667;49.046;8.468;2023-02-01T06:13:53;20.50;;;8.40;;
142;SDS011;63667;49.046;8.468;2023-02-01T06:16:21;16.40;;;8.47;;
142;SDS011;63667;49.046;8.468;2023-02-01T06:18:48;19.03;;;9.73;;
142;SDS011;63667;49.046;8.468;2023-02-01T06:21:17;13.63;;;7.73;;
142;SDS011;63667;49.046;8.468;2023-02-01T06:23:50;12.40;;;6.80;;
142;SDS011;63667;49.046;8.468;2023-02-01T06:26:18;12.43;;;7.40;;
142;SDS011;63667;49.046;8.468;2023-02-01T06:28:46;15.93;;;7.47;;
142;SDS011;63667;49.046;8.468;2023-02-01T06:31:13;14.20;;;7.30;;
142;SDS011;63667;49.046;8.468;2023-02-01T06:33:41;18.87;;;7.73;;
142;SDS011;63667;49.046;8.468;2023-02-01T06:36:10;14.40;;;6.87;;
142;SDS011;63667;49.046;8.468;2023-02-01T06:38:41;17.97;;;7.73;;
142;SDS011;63667;49.046;8.468;2023-02-01T06:41:09;17.40;;;8.00;;
142;SDS011;63667;49.046;8.468;2023-02-01T06:43:36;15.80;;;8.10;;
142;SDS011;63667;49.046;8.468;2023-02-01T06:46:06;14.67;;;8.10;;
142;SDS011;63667;49.046;8.468;2023-02-01T06:48:34;19.10;;;9.07;;
142;SDS011;63667;49.046;8.468;2023-02-01T06:51:01;15.87;;;8.10;;
142;SDS011;63667;49.046;8.468;2023-02-01T06:53:29;22.13;;;8.53;;
142;SDS011;63667;49.046;8.468;2023-02-01T06:56:02;13.17;;;7.10;;
142;SDS011;63667;49.046;8.468;2023-02-01T06:58:31;18.50;;;8.50;;
142;SDS011;63667;49.046;8.468;2023-02-01T07:01:05;13.87;;;7.10;;
142;SDS011;63667;49.046;8.468;2023-02-01T07:03:33;18.20;;;7.80;;
142;SDS011;63667;49.046;8.468;2023-02-01T07:06:01;21.63;;;7.37;;
142;SDS011;63667;49.046;8.468;2023-02-01T07:08:30;14.60;;;6.33;;
142;SDS011;63667;49.046;8.468;2023-02-01T07:11:05;16.10;;;8.50;;
142;SDS011;63667;49.046;8.468;2023-02-01T07:13:36;16.67;;;8.57;;
142;SDS011;63667;49.046;8.468;2023-02-01T07:16:04;18.87;;;9.03;;
142;SDS011;63667;49.046;8.468;2023-02-01T07:18:36;24.40;;;8.60;;
142;SDS011;63667;49.046;8.468;2023-02-01T07:21:03;16.93;;;9.17;;
142;SDS011;63667;49.046;8.468;2023-02-01T07:23:32;14.77;;;7.80;;
142;SDS011;63667;49.046;8.468;2023-02-01T07:25:59;18.63;;;8.23;;
142;SDS011;63667;49.046;8.468;2023-02-01T07:28:28;21.47;;;8.33;;
142;SDS011;63667;49.046;8.468;2023-02-01T07:31:03;16.73;;;8.07;;
142;SDS011;63667;49.046;8.468;2023-02-01T07:33:31;17.70;;;8.90;;
142;SDS011;63667;49.046;8.468;2023-02-01T07:36:00;14.70;;;7.30;;
142;SDS011;63667;49.046;8.468;2023-02-01T07:38:31;15.50;;;7.00;;
142;SDS011;63667;49.046;8.468;2023-02-01T07:41:00;15.73;;;6.50;;
142;SDS011;63667;49.046;8.468;2023-02-01T07:43:28;17.43;;;7.40;;
142;SDS011;63667;49.046;8.468;2023-02-01T07:45:56;14.00;;;7.50;;
142;SDS011;63667;49.046;8.468;2023-02-01T07:48:24;17.70;;;7.47;;
142;SDS011;63667;49.046;8.468;2023-02-01T07:51:02;22.30;;;8.20;;
142;SDS011;63667;49.046;8.468;2023-02-01T07:53:32;17.73;;;7.80;;
142;SDS011;63667;49.046;8.468;2023-02-01T07:56:00;11.50;;;6.70;;
142;SDS011;63667;49.046;8.468;2023-02-01T07:58:28;17.17;;;7.50;;
142;SDS011;63667;49.046;8.468;2023-02-01T08:00:55;17.40;;;7.50;;
142;SDS011;63667;49.046;8.468;2023-02-01T08:03:40;11.23;;;6.50;;
142;SDS011;63667;49.046;8.468;2023-02-01T08:06:08;17.13;;;7.27;;
142;SDS011;63667;49.046;8.468;2023-02-01T08:08:36;14.70;;;6.20;;
142;SDS011;63667;49.046;8.468;2023-02-01T08:11:04;13.60;;;6.67;;
142;SDS011;63667;49.046;8.468;2023-02-01T08:13:35;13.07;;;6.43;;
142;SDS011;63667;49.046;8.468;2023-02-01T08:16:04;14.03;;;6.97;;
142;SDS011;63667;49.046;8.468;2023-02-01T08:18:32;14.40;;;7.27;;
142;SDS011;63667;49.046;8.468;2023-02-01T08:21:07;10.87;;;6.20;;
142;SDS011;63667;49.046;8.468;2023-02-01T08:23:42;13.70;;;6.80;;
142;SDS011;63667;49.046;8.468;2023-02-01T08:26:12;23.37;;;6.27;;
142;SDS011;63667;49.046;8.468;2023-02-01T08:28:51;18.87;;;6.37;;
142;SDS011;63667;49.046;8.468;2023-02-01T08:31:23;12.80;;;6.20;;
142;SDS011;63667;49.046;8.468;2023-02-01T08:33:52;13.40;;;6.30;;
142;SDS011;63667;49.046;8.468;2023-02-01T08:36:22;13.73;;;5.67;;
142;SDS011;63667;49.046;8.468;2023-02-01T08:38:50;9.40;;;5.13;;
142;SDS011;63667;49.046;8.468;2023-02-01T08:41:18;14.63;;;6.10;;
142;SDS011;63667;49.046;8.468;2023-02-01T08:43:46;13.37;;;5.67;;
142;SDS011;63667;49.046;8.468;2023-02-01T08:46:14;10.57;;;6.03;;
142;SDS011;63667;49.046;8.468;2023-02-01T08:48:42;14.10;;;6.37;;
142;SDS011;63667;49.046;8.468;2023-02-01T08:51:10;17.30;;;5.93;;
142;SDS011;63667;49.046;8.468;2023-02-01T08:53:38;12.53;;;6.03;;
142;SDS011;63667;49.046;8.468;2023-02-01T08:56:07;16.63;;;6.63;;
142;SDS011;63667;49.046;8.468;2023-02-01T08:58:36;14.60;;;6.43;;
142;SDS011;63667;49.046;8.468;2023-02-01T09:01:05;11.80;;;6.40;;
142;SDS011;63667;49.046;8.468;2023-02-01T09:03:36;14.77;;;5.97;;
142;SDS011;63667;49.046;8.468;2023-02-01T09:06:04;14.20;;;6.63;;
142;SDS011;63667;49.046;8.468;2023-02-01T09:08:33;10.73;;;6.23;;
142;SDS011;63667;49.046;8.468;2023-02-01T09:11:02;9.93;;;6.13;;
142;SDS011;63667;49.046;8.468;2023-02-01T09:13:30;11.40;;;5.83;;
142;SDS011;63667;49.046;8.468;2023-02-01T09:15:59;12.50;;;6.73;;
142;SDS011;63667;49.046;8.468;2023-02-01T09:18:29;14.17;;;6.50;;
142;SDS011;63667;49.046;8.468;2023-02-01T09:20:56;16.03;;;5.47;;
142;SDS011;63667;49.046;8.468;2023-02-01T09:23:24;12.50;;;5.93;;
142;SDS011;63667;49.046;8.468;2023-02-01T09:25:51;12.80;;;5.67;;
142;SDS011;63667;49.046;8.468;2023-02-01T09:28:18;14.50;;;6.80;;
142;SDS011;63667;49.046;8.468;2023-02-01T09:30:45;14.00;;;6.13;;
142;SDS011;63667;49.046;8.468;2023-02-01T09:33:13;11.47;;;6.67;;
142;SDS011;63667;49.046;8.468;2023-02-01T09:35:40;10.30;;;5.57;;
142;SDS011;63667;49.046;8.468;2023-02-01T09:38:07;11.17;;;6.00;;
142;SDS011;63667;49.046;8.468;2023-02-01T09:40:35;11.07;;;5.03;;
142;SDS011;63667;49.046;8.468;2023-02-01T09:45:44;13.33;;;5.70;;
142;SDS011;63667;49.046;8.468;2023-02-01T09:48:25;19.73;;;6.27;;
142;SDS011;63667;49.046;8.468;2023-02-01T09:50:57;14.20;;;5.87;;
142;SDS011;63667;49.046;8.468;2023-02-01T09:53:30;16.23;;;6.07;;
142;SDS011;63667;49.046;8.468;2023-02-01T09:56:14;17.57;;;6.67;;
142;SDS011;63667;49.046;8.468;2023-02-01T10:01:28;10.90;;;5.53;;
142;SDS011;63667;49.046;8.468;2023-02-01T10:04:11;23.27;;;6.47;;
142;SDS011;63667;49.046;8.468;2023-02-01T10:17:31;17.20;;;5.60;;
142;SDS011;63667;49.046;8.468;2023-02-01T10:22:44;15.50;;;4.87;;
142;SDS011;63667;49.046;8.468;2023-02-01T10:25:43;12.53;;;5.70;;
142;SDS011;63667;49.046;8.468;2023-02-01T10:28:20;12.87;;;5.40;;
142;SDS011;63667;49.046;8.468;2023-02-01T10:30:49;18.80;;;5.63;;
142;SDS011;63667;49.046;8.468;2023-02-01T10:33:25;13.43;;;5.47;;
142;SDS011;63667;49.046;8.468;2023-02-01T10:36:05;14.30;;;5.30;;
142;SDS011;63667;49.046;8.468;2023-02-01T10:38:54;9.63;;;4.70;;
142;SDS011;63667;49.046;8.468;2023-02-01T10:41:24;13.53;;;4.70;;
142;SDS011;63667;49.046;8.468;2023-02-01T10:44:03;17.77;;;5.57;;
142;SDS011;63667;49.046;8.468;2023-02-01T10:46:55;14.87;;;5.40;;
142;SDS011;63667;49.046;8.468;2023-02-01T10:49:29;13.40;;;4.50;;
142;SDS011;63667;49.046;8.468;2023-02-01T10:52:11;11.63;;;5.00;;
142;SDS011;63667;49.046;8.468;2023-02-01T10:54:48;7.73;;;4.70;;
142;SDS011;63667;49.046;8.468;2023-02-01T10:57:25;16.40;;;5.10;;
142;SDS011;63667;49.046;8.468;2023-02-01T10:59:55;10.23;;;4.40;;
142;SDS011;63667;49.046;8.468;2023-02-01T11:02:30;15.03;;;5.10;;
142;SDS011;63667;49.046;8.468;2023-02-01T11:05:01;13.60;;;5.17;;
142;SDS011;63667;49.046;8.468;2023-02-01T11:07:53;17.87;;;5.30;;
142;SDS011;63667;49.046;8.468;2023-02-01T11:10:35;16.63;;;5.07;;
142;SDS011;63667;49.046;8.468;2023-02-01T11:13:14;12.83;;;5.30;;
142;SDS011;63667;49.046;8.468;2023-02-01T11:15:44;12.40;;;5.60;;
142;SDS011;63667;49.046;8.468;2023-02-01T11:18:58;13.90;;;5.40;;
142;SDS011;63667;49.046;8.468;2023-02-01T11:21:03;17.03;;;6.43;;
142;SDS011;63667;49.046;8.468;2023-02-01T11:23:32;13.40;;;5.00;;
142;SDS011;63667;49.046;8.468;2023-02-01T11:28:39;9.10;;;5.10;;
142;SDS011;63667;49.046;8.468;2023-02-01T11:31:11;11.03;;;5.23;;
142;SDS011;63667;49.046;8.468;2023-02-01T11:33:43;17.70;;;5.57;;
142;SDS011;63667;49.046;8.468;2023-02-01T11:36:18;20.00;;;6.70;;
142;SDS011;63667;49.046;8.468;2023-02-01T11:38:51;14.67;;;5.60;;
142;SDS011;63667;49.046;8.468;2023-02-01T11:41:21;27.43;;;6.53;;
142;SDS011;63667;49.046;8.468;2023-02-01T11:43:52;11.90;;;5.00;;
142;SDS011;63667;49.046;8.468;2023-02-01T11:46:37;12.77;;;5.63;;
142;SDS011;63667;49.046;8.468;2023-02-01T11:49:23;16.23;;;5.47;;
142;SDS011;63667;49.046;8.468;2023-02-01T12:15:22;11.50;;;4.50;;
142;SDS011;63667;49.046;8.468;2023-02-01T12:18:09;12.10;;;5.23;;
142;SDS011;63667;49.046;8.468;2023-02-01T12:20:45;16.37;;;5.13;;
142;SDS011;63667;49.046;8.468;2023-02-01T12:31:22;13.50;;;5.20;;
142;SDS011;63667;49.046;8.468;2023-02-01T12:36:29;9.10;;;4.90;;
142;SDS011;63667;49.046;8.468;2023-02-01T12:39:43;19.17;;;5.50;;
142;SDS011;63667;49.046;8.468;2023-02-01T12:41:56;14.70;;;5.30;;
142;SDS011;63667;49.046;8.468;2023-02-01T12:44:31;13.90;;;5.43;;
142;SDS011;63667;49.046;8.468;2023-02-01T12:47:03;15.80;;;5.20;;
142;SDS011;63667;49.046;8.468;2023-02-01T12:55:17;18.70;;;5.77;;
142;SDS011;63667;49.046;8.468;2023-02-01T12:57:48;22.57;;;5.40;;
142;SDS011;63667;49.046;8.468;2023-02-01T13:00:19;12.63;;;5.60;;
142;SDS011;63667;49.046;8.468;2023-02-01T13:05:22;26.93;;;5.70;;
142;SDS011;63667;49.046;8.468;2023-02-01T13:08:01;14.93;;;5.50;;
142;SDS011;63667;49.046;8.468;2023-02-01T13:10:38;31.20;;;11.23;;
142;SDS011;63667;49.046;8.468;2023-02-01T13:13:11;14.70;;;6.03;;
142;SDS011;63667;49.046;8.468;2023-02-01T13:15:44;15.23;;;5.93;;
142;SDS011;63667;49.046;8.468;2023-02-01T13:18:34;25.10;;;7.77;;
142;SDS011;63667;49.046;8.468;2023-02-01T13:21:03;14.50;;;6.60;;
142;SDS011;63667;49.046;8.468;2023-02-01T13:23:33;18.43;;;6.27;;
142;SDS011;63667;49.046;8.468;2023-02-01T13:26:02;22.30;;;6.63;;
142;SDS011;63667;49.046;8.468;2023-02-01T13:44:12;15.17;;;6.43;;
142;SDS011;63667;49.046;8.468;2023-02-01T13:46:41;12.13;;;5.80;;
142;SDS011;63667;49.046;8.468;2023-02-01T13:49:23;16.20;;;5.53;;
142;SDS011;63667;49.046;8.468;2023-02-01T13:51:54;24.33;;;7.73;;
142;SDS011;63667;49.046;8.468;2023-02-01T13:54:42;16.67;;;6.73;;
142;SDS011;63667;49.046;8.468;2023-02-01T13:59:54;17.03;;;4.93;;
142;SDS011;63667;49.046;8.468;2023-02-01T14:05:09;29.60;;;5.30;;
142;SDS011;63667;49.046;8.468;2023-02-01T14:13:12;18.63;;;5.37;;
142;SDS011;63667;49.046;8.468;2023-02-01T14:15:39;23.53;;;6.00;;
142;SDS011;63667;49.046;8.468;2023-02-01T14:18:48;15.90;;;5.50;;
142;SDS011;63667;49.046;8.468;2023-02-01T14:21:10;19.77;;;5.37;;
142;SDS011;63667;49.046;8.468;2023-02-01T14:23:40;14.30;;;5.40;;
142;SDS011;63667;49.046;8.468;2023-02-01T14:26:09;15.33;;;5.40;;
142;SDS011;63667;49.046;8.468;2023-02-01T14:28:38;21.67;;;5.17;;
142;SDS011;63667;49.046;8.468;2023-02-01T14:31:13;14.03;;;4.90;;
142;SDS011;63667;49.046;8.468;2023-02-01T14:33:41;10.10;;;6.00;;
142;SDS011;63667;49.046;8.468;2023-02-01T14:36:11;24.67;;;5.10;;
142;SDS011;63667;49.046;8.468;2023-02-01T14:38:38;13.10;;;4.63;;
142;SDS011;63667;49.046;8.468;2023-02-01T14:41:13;13.13;;;5.23;;
142;SDS011;63667;49.046;8.468;2023-02-01T14:44:22;11.83;;;4.40;;
142;SDS011;63667;49.046;8.468;2023-02-01T14:49:23;14.30;;;4.80;;
142;SDS011;63667;49.046;8.468;2023-02-01T14:51:50;16.70;;;5.10;;
142;SDS011;63667;49.046;8.468;2023-02-01T14:54:19;20.50;;;5.00;;
142;SDS011;63667;49.046;8.468;2023-02-01T14:56:47;15.13;;;5.30;;
142;SDS011;63667;49.046;8.468;2023-02-01T14:59:15;36.43;;;5.20;;
142;SDS011;63667;49.046;8.468;2023-02-01T15:01:48;19.30;;;5.87;;
142;SDS011;63667;49.046;8.468;2023-02-01T15:04:17;15.47;;;6.00;;
142;SDS011;63667;49.046;8.468;2023-02-01T15:06:46;18.53;;;5.67;;
142;SDS011;63667;49.046;8.468;2023-02-01T15:12:05;17.47;;;5.40;;
142;SDS011;63667;49.046;8.468;2023-02-01T15:14:41;14.40;;;5.90;;
142;SDS011;63667;49.046;8.468;2023-02-01T15:19:54;15.33;;;5.60;;
142;SDS011;63667;49.046;8.468;2023-02-01T15:22:22;14.87;;;5.10;;
142;SDS011;63667;49.046;8.468;2023-02-01T15:24:55;17.93;;;4.83;;
142;SDS011;63667;49.046;8.468;2023-02-01T15:27:23;14.20;;;4.77;;
142;SDS011;63667;49.046;8.468;2023-02-01T15:29:51;17.63;;;5.83;;
142;SDS011;63667;49.046;8.468;2023-02-01T15:32:32;10.53;;;4.77;;
142;SDS011;63667;49.046;8.468;2023-02-01T15:34:59;19.93;;;5.30;;
142;SDS011;63667;49.046;8.468;2023-02-01T15:37:27;26.10;;;5.50;;
142;SDS011;63667;49.046;8.468;2023-02-01T15:40:30;12.00;;;4.63;;
142;SDS011;63667;49.046;8.468;2023-02-01T15:42:53;24.10;;;6.10;;
142;SDS011;63667;49.046;8.468;2023-02-01T15:45:23;16.93;;;4.60;;
142;SDS011;63667;49.046;8.468;2023-02-01T15:47:52;14.23;;;5.13;;
142;SDS011;63667;49.046;8.468;2023-02-01T15:50:20;21.73;;;6.00;;
142;SDS011;63667;49.046;8.468;2023-02-01T15:58:05;18.47;;;5.50;;
142;SDS011;63667;49.046;8.468;2023-02-01T16:00:34;14.83;;;5.27;;
142;SDS011;63667;49.046;8.468;2023-02-01T16:03:23;22.50;;;5.43;;
142;SDS011;63667;49.046;8.468;2023-02-01T16:05:55;19.73;;;4.47;;
142;SDS011;63667;49.046;8.468;2023-02-01T16:08:24;15.63;;;5.03;;
142;SDS011;63667;49.046;8.468;2023-02-01T16:10:53;15.33;;;5.10;;
142;SDS011;63667;49.046;8.468;2023-02-01T16:13:21;14.83;;;4.80;;
142;SDS011;63667;49.046;8.468;2023-02-01T16:15:48;12.47;;;4.87;;
142;SDS011;63667;49.046;8.468;2023-02-01T16:18:16;21.83;;;6.10;;
142;SDS011;63667;49.046;8.468;2023-02-01T16:20:43;19.63;;;5.47;;
142;SDS011;63667;49.046;8.468;2023-02-01T16:23:10;17.90;;;5.67;;
142;SDS011;63667;49.046;8.468;2023-02-01T16:25:37;22.20;;;5.27;;
142;SDS011;63667;49.046;8.468;2023-02-01T16:28:05;12.67;;;4.60;;
142;SDS011;63667;49.046;8.468;2023-02-01T16:30:34;21.70;;;5.30;;
142;SDS011;63667;49.046;8.468;2023-02-01T16:33:01;26.77;;;4.97;;
142;SDS011;63667;49.046;8.468;2023-02-01T16:35:34;16.10;;;5.13;;
142;SDS011;63667;49.046;8.468;2023-02-01T16:38:07;18.30;;;5.67;;
142;SDS011;63667;49.046;8.468;2023-02-01T16:40:39;12.63;;;5.03;;
142;SDS011;63667;49.046;8.468;2023-02-01T16:43:14;16.27;;;6.03;;
142;SDS011;63667;49.046;8.468;2023-02-01T16:45:43;14.47;;;6.07;;
142;SDS011;63667;49.046;8.468;2023-02-01T16:50:43;15.33;;;5.47;;
142;SDS011;63667;49.046;8.468;2023-02-01T16:53:12;16.73;;;6.17;;
142;SDS011;63667;49.046;8.468;2023-02-01T16:55:41;14.03;;;4.60;;
142;SDS011;63667;49.046;8.468;2023-02-01T16:58:09;14.83;;;4.40;;
142;SDS011;63667;49.046;8.468;2023-02-01T17:00:36;13.30;;;4.90;;
142;SDS011;63667;49.046;8.468;2023-02-01T17:03:04;11.10;;;4.80;;
142;SDS011;63667;49.046;8.468;2023-02-01T17:05:31;18.13;;;5.07;;
142;SDS011;63667;49.046;8.468;2023-02-01T17:07:59;16.07;;;5.60;;
142;SDS011;63667;49.046;8.468;2023-02-01T17:10:29;23.87;;;4.73;;
142;SDS011;63667;49.046;8.468;2023-02-01T17:12:57;22.93;;;4.90;;
142;SDS011;63667;49.046;8.468;2023-02-01T17:15:26;13.07;;;5.30;;
142;SDS011;63667;49.046;8.468;2023-02-01T17:17:54;16.30;;;4.73;;
142;SDS011;63667;49.046;8.468;2023-02-01T17:20:24;18.40;;;5.80;;
142;SDS011;63667;49.046;8.468;2023-02-01T17:22:53;23.07;;;5.07;;
142;SDS011;63667;49.046;8.468;2023-02-01T17:25:20;17.80;;;5.20;;
142;SDS011;63667;49.046;8.468;2023-02-01T17:27:48;10.57;;;5.13;;
142;SDS011;63667;49.046;8.468;2023-02-01T17:30:15;15.80;;;5.83;;
142;SDS011;63667;49.046;8.468;2023-02-01T17:32:42;11.43;;;4.40;;
142;SDS011;63667;49.046;8.468;2023-02-01T17:35:20;11.90;;;4.60;;
142;SDS011;63667;49.046;8.468;2023-02-01T17:37:48;22.90;;;4.73;;
142;SDS011;63667;49.046;8.468;2023-02-01T17:40:15;29.77;;;5.23;;
142;SDS011;63667;49.046;8.468;2023-02-01T17:42:43;11.90;;;4.70;;
142;SDS011;63667;49.046;8.468;2023-02-01T17:47:39;14.33;;;4.97;;